sensor_id;sensor_type;location;lat;lon;timestamp;P1;durP1;ratioP1;P2;durP2;ratioP2
40537;SDS011;27925;41.874;12.526;2024-01-06T00:01:00;17.40;;;5.22;;
40537;SDS011;27925;41.874;12.526;2024-01-06T00:03:26;13.13;;;4.70;;
40537;SDS011;27925;41.874;12.526;2024-01-06T00:05:51;17.60;;;4.95;;
40537;SDS011;27925;41.874;12.526;2024-01-06T00:08:17;19.20;;;5.32;;
40537;SDS011;27925;41.874;12.526;2024-01-06T00:10:43;15.70;;;4.82;;
40537;SDS011;27925;41.874;12.526;2024-01-06T00:13:09;15.60;;;5.18;;
40537;SDS011;27925;41.874;12.526;2024-01-06T00:15:35;16.58;;;4.82;;
40537;SDS011;27925;41.874;12.526;2024-01-06T00:18:01;16.13;;;5.45;;
40537;SDS011;27925;41.874;12.526;2024-01-06T00:20:27;16.30;;;5.28;;
40537;SDS011;27925;41.874;12.526;2024-01-06T00:22:53;17.70;;;5.53;;
40537;SDS011;27925;41.874;12.526;2024-01-06T00:25:19;13.15;;;4.53;;
40537;SDS011;27925;41.874;12.526;2024-01-06T00:27:44;19.48;;;4.93;;
40537;SDS011;27925;41.874;12.526;2024-01-06T00:30:10;15.63;;;4.50;;
40537;SDS011;27925;41.874;12.526;2024-01-06T00:32:36;18.63;;;5.68;;
40537;SDS011;27925;41.874;12.526;2024-01-06T00:35:02;19.80;;;4.57;;
40537;SDS011;27925;41.874;12.526;2024-01-06T00:37:28;18.48;;;5.57;;
40537;SDS011;27925;41.874;12.526;2024-01-06T00:39:53;19.52;;;5.78;;
40537;SDS011;27925;41.874;12.526;2024-01-06T00:42:19;17.13;;;4.90;;
40537;SDS011;27925;41.874;12.526;2024-01-06T00:44:45;21.15;;;5.60;;
40537;SDS011;27925;41.874;12.526;2024-01-06T00:47:11;20.40;;;6.45;;
40537;SDS011;27925;41.874;12.526;2024-01-06T00:49:36;24.20;;;5.57;;
40537;SDS011;27925;41.874;12.526;2024-01-06T00:52:02;22.35;;;5.47;;
40537;SDS011;27925;41.874;12.526;2024-01-06T00:54:28;22.58;;;6.07;;
40537;SDS011;27925;41.874;12.526;2024-01-06T00:56:54;22.25;;;5.47;;
40537;SDS011;27925;41.874;12.526;2024-01-06T00:59:20;26.98;;;6.60;;
40537;SDS011;27925;41.874;12.526;2024-01-06T01:01:45;24.25;;;6.07;;
40537;SDS011;27925;41.874;12.526;2024-01-06T01:04:11;27.90;;;6.43;;
40537;SDS011;27925;41.874;12.526;2024-01-06T01:06:37;27.08;;;5.97;;
40537;SDS011;27925;41.874;12.526;2024-01-06T01:09:02;21.77;;;6.72;;
40537;SDS011;27925;41.874;12.526;2024-01-06T01:11:29;22.27;;;6.03;;
40537;SDS011;27925;41.874;12.526;2024-01-06T01:13:55;27.63;;;5.63;;
40537;SDS011;27925;41.874;12.526;2024-01-06T01:16:21;25.70;;;5.72;;
40537;SDS011;27925;41.874;12.526;2024-01-06T01:18:47;24.33;;;6.28;;
40537;SDS011;27925;41.874;12.526;2024-01-06T01:21:12;26.00;;;6.03;;
40537;SDS011;27925;41.874;12.526;2024-01-06T01:23:39;22.08;;;6.05;;
40537;SDS011;27925;41.874;12.526;2024-01-06T01:26:05;27.90;;;5.72;;
40537;SDS011;27925;41.874;12.526;2024-01-06T01:28:30;23.13;;;6.18;;
40537;SDS011;27925;41.874;12.526;2024-01-06T01:30:56;22.15;;;5.95;;
40537;SDS011;27925;41.874;12.526;2024-01-06T01:33:22;20.80;;;5.32;;
40537;SDS011;27925;41.874;12.526;2024-01-06T01:35:48;23.92;;;6.35;;
40537;SDS011;27925;41.874;12.526;2024-01-06T01:38:13;24.27;;;6.38;;
40537;SDS011;27925;41.874;12.526;2024-01-06T01:40:39;25.95;;;6.32;;
40537;SDS011;27925;41.874;12.526;2024-01-06T01:43:05;20.17;;;5.43;;
40537;SDS011;27925;41.874;12.526;2024-01-06T01:45:31;25.23;;;6.55;;
40537;SDS011;27925;41.874;12.526;2024-01-06T01:47:57;26.52;;;6.93;;
40537;SDS011;27925;41.874;12.526;2024-01-06T01:50:23;23.55;;;6.35;;
40537;SDS011;27925;41.874;12.526;2024-01-06T01:52:52;25.15;;;6.63;;
40537;SDS011;27925;41.874;12.526;2024-01-06T01:55:18;22.42;;;6.22;;
40537;SDS011;27925;41.874;12.526;2024-01-06T01:57:44;23.40;;;6.10;;
40537;SDS011;27925;41.874;12.526;2024-01-06T02:00:09;18.88;;;5.47;;
40537;SDS011;27925;41.874;12.526;2024-01-06T02:02:36;22.08;;;6.40;;
40537;SDS011;27925;41.874;12.526;2024-01-06T02:05:02;27.48;;;6.35;;
40537;SDS011;27925;41.874;12.526;2024-01-06T02:07:28;22.02;;;6.75;;
40537;SDS011;27925;41.874;12.526;2024-01-06T02:09:54;20.38;;;6.00;;
40537;SDS011;27925;41.874;12.526;2024-01-06T02:12:19;24.90;;;6.78;;
40537;SDS011;27925;41.874;12.526;2024-01-06T02:14:45;24.98;;;6.55;;
40537;SDS011;27925;41.874;12.526;2024-01-06T02:17:11;24.02;;;6.72;;
40537;SDS011;27925;41.874;12.526;2024-01-06T02:19:36;21.73;;;5.32;;
40537;SDS011;27925;41.874;12.526;2024-01-06T02:22:02;27.08;;;6.80;;
40537;SDS011;27925;41.874;12.526;2024-01-06T02:24:28;26.15;;;7.30;;
40537;SDS011;27925;41.874;12.526;2024-01-06T02:26:53;27.13;;;7.18;;
40537;SDS011;27925;41.874;12.526;2024-01-06T02:29:19;22.67;;;5.63;;
40537;SDS011;27925;41.874;12.526;2024-01-06T02:31:45;26.77;;;5.90;;
40537;SDS011;27925;41.874;12.526;2024-01-06T02:34:10;19.65;;;5.60;;
40537;SDS011;27925;41.874;12.526;2024-01-06T02:36:36;23.38;;;6.45;;
40537;SDS011;27925;41.874;12.526;2024-01-06T02:39:02;28.33;;;6.40;;
40537;SDS011;27925;41.874;12.526;2024-01-06T02:41:27;20.17;;;5.18;;
40537;SDS011;27925;41.874;12.526;2024-01-06T02:43:54;18.95;;;5.70;;
40537;SDS011;27925;41.874;12.526;2024-01-06T02:46:21;22.88;;;6.10;;
40537;SDS011;27925;41.874;12.526;2024-01-06T02:48:47;28.77;;;6.80;;
40537;SDS011;27925;41.874;12.526;2024-01-06T02:51:12;27.55;;;6.40;;
40537;SDS011;27925;41.874;12.526;2024-01-06T02:53:38;22.55;;;6.25;;
40537;SDS011;27925;41.874;12.526;2024-01-06T02:56:04;23.58;;;5.93;;
40537;SDS011;27925;41.874;12.526;2024-01-06T02:58:34;25.00;;;6.70;;
40537;SDS011;27925;41.874;12.526;2024-01-06T03:00:59;24.35;;;5.47;;
40537;SDS011;27925;41.874;12.526;2024-01-06T03:03:25;27.55;;;6.43;;
40537;SDS011;27925;41.874;12.526;2024-01-06T03:05:51;26.63;;;6.25;;
40537;SDS011;27925;41.874;12.526;2024-01-06T03:08:16;24.17;;;6.07;;
40537;SDS011;27925;41.874;12.526;2024-01-06T03:10:42;27.10;;;6.05;;
40537;SDS011;27925;41.874;12.526;2024-01-06T03:13:08;22.92;;;5.18;;
40537;SDS011;27925;41.874;12.526;2024-01-06T03:15:34;17.05;;;5.63;;
40537;SDS011;27925;41.874;12.526;2024-01-06T03:18:00;19.90;;;5.97;;
40537;SDS011;27925;41.874;12.526;2024-01-06T03:20:25;25.60;;;6.20;;
40537;SDS011;27925;41.874;12.526;2024-01-06T03:22:51;24.38;;;6.18;;
40537;SDS011;27925;41.874;12.526;2024-01-06T03:25:16;22.08;;;5.90;;
40537;SDS011;27925;41.874;12.526;2024-01-06T03:27:42;20.75;;;5.05;;
40537;SDS011;27925;41.874;12.526;2024-01-06T03:30:08;15.65;;;5.80;;
40537;SDS011;27925;41.874;12.526;2024-01-06T03:32:35;18.60;;;5.63;;
40537;SDS011;27925;41.874;12.526;2024-01-06T03:35:00;22.13;;;5.20;;
40537;SDS011;27925;41.874;12.526;2024-01-06T03:37:26;20.52;;;5.43;;
40537;SDS011;27925;41.874;12.526;2024-01-06T03:39:52;18.23;;;4.43;;
40537;SDS011;27925;41.874;12.526;2024-01-06T03:42:17;17.70;;;5.07;;
40537;SDS011;27925;41.874;12.526;2024-01-06T03:44:43;22.52;;;5.03;;
40537;SDS011;27925;41.874;12.526;2024-01-06T03:47:09;16.48;;;4.68;;
40537;SDS011;27925;41.874;12.526;2024-01-06T03:49:35;16.10;;;4.63;;
40537;SDS011;27925;41.874;12.526;2024-01-06T03:52:00;14.70;;;4.32;;
40537;SDS011;27925;41.874;12.526;2024-01-06T03:54:26;15.23;;;4.50;;
40537;SDS011;27925;41.874;12.526;2024-01-06T03:56:51;16.70;;;4.28;;
40537;SDS011;27925;41.874;12.526;2024-01-06T03:59:17;12.93;;;4.13;;
40537;SDS011;27925;41.874;12.526;2024-01-06T04:01:43;15.88;;;4.18;;
40537;SDS011;27925;41.874;12.526;2024-01-06T04:04:08;18.58;;;4.10;;
40537;SDS011;27925;41.874;12.526;2024-01-06T04:06:34;13.07;;;3.95;;
40537;SDS011;27925;41.874;12.526;2024-01-06T04:09:00;12.90;;;3.47;;
40537;SDS011;27925;41.874;12.526;2024-01-06T04:11:27;14.70;;;3.70;;
40537;SDS011;27925;41.874;12.526;2024-01-06T04:13:52;14.18;;;3.72;;
40537;SDS011;27925;41.874;12.526;2024-01-06T04:16:19;15.20;;;4.00;;
40537;SDS011;27925;41.874;12.526;2024-01-06T04:18:44;16.85;;;3.78;;
40537;SDS011;27925;41.874;12.526;2024-01-06T04:21:10;12.93;;;3.38;;
40537;SDS011;27925;41.874;12.526;2024-01-06T04:23:36;9.60;;;3.22;;
40537;SDS011;27925;41.874;12.526;2024-01-06T04:26:02;9.13;;;3.10;;
40537;SDS011;27925;41.874;12.526;2024-01-06T04:28:30;10.63;;;3.42;;
40537;SDS011;27925;41.874;12.526;2024-01-06T04:30:55;10.63;;;3.38;;
40537;SDS011;27925;41.874;12.526;2024-01-06T04:33:21;16.65;;;3.97;;
40537;SDS011;27925;41.874;12.526;2024-01-06T04:35:47;13.35;;;3.50;;
40537;SDS011;27925;41.874;12.526;2024-01-06T04:38:12;12.88;;;3.50;;
40537;SDS011;27925;41.874;12.526;2024-01-06T04:40:38;13.80;;;3.25;;
40537;SDS011;27925;41.874;12.526;2024-01-06T04:43:04;14.52;;;3.50;;
40537;SDS011;27925;41.874;12.526;2024-01-06T04:45:29;18.65;;;3.85;;
40537;SDS011;27925;41.874;12.526;2024-01-06T22:50:31;18.20;;;12.50;;
40537;SDS011;27925;41.874;12.526;2024-01-06T22:52:56;20.95;;;12.57;;
40537;SDS011;27925;41.874;12.526;2024-01-06T22:55:22;20.05;;;12.57;;
40537;SDS011;27925;41.874;12.526;2024-01-06T22:57:48;15.75;;;11.77;;
40537;SDS011;27925;41.874;12.526;2024-01-06T23:00:14;23.05;;;15.50;;
40537;SDS011;27925;41.874;12.526;2024-01-06T23:02:41;23.10;;;14.93;;
40537;SDS011;27925;41.874;12.526;2024-01-06T23:05:07;23.25;;;12.60;;
40537;SDS011;27925;41.874;12.526;2024-01-06T23:07:33;21.15;;;11.13;;
40537;SDS011;27925;41.874;12.526;2024-01-06T23:09:59;17.75;;;11.45;;
40537;SDS011;27925;41.874;12.526;2024-01-06T23:12:25;15.27;;;11.32;;
40537;SDS011;27925;41.874;12.526;2024-01-06T23:14:50;18.88;;;11.23;;
40537;SDS011;27925;41.874;12.526;2024-01-06T23:17:16;21.02;;;11.30;;
40537;SDS011;27925;41.874;12.526;2024-01-06T23:19:42;17.85;;;12.05;;
40537;SDS011;27925;41.874;12.526;2024-01-06T23:22:09;16.45;;;10.95;;
40537;SDS011;27925;41.874;12.526;2024-01-06T23:24:35;16.15;;;10.60;;
40537;SDS011;27925;41.874;12.526;2024-01-06T23:27:01;17.30;;;10.73;;
40537;SDS011;27925;41.874;12.526;2024-01-06T23:29:27;16.88;;;10.38;;
40537;SDS011;27925;41.874;12.526;2024-01-06T23:31:53;17.35;;;10.57;;
40537;SDS011;27925;41.874;12.526;2024-01-06T23:34:19;16.88;;;9.70;;
40537;SDS011;27925;41.874;12.526;2024-01-06T23:36:44;18.25;;;10.98;;
40537;SDS011;27925;41.874;12.526;2024-01-06T23:39:10;19.55;;;11.80;;
40537;SDS011;27925;41.874;12.526;2024-01-06T23:41:36;25.75;;;12.45;;
40537;SDS011;27925;41.874;12.526;2024-01-06T23:44:01;19.38;;;13.32;;
40537;SDS011;27925;41.874;12.526;2024-01-06T23:46:27;21.70;;;12.73;;
40537;SDS011;27925;41.874;12.526;2024-01-06T23:48:53;21.08;;;13.52;;
40537;SDS011;27925;41.874;12.526;2024-01-06T23:51:19;20.50;;;13.23;;
40537;SDS011;27925;41.874;12.526;2024-01-06T23:53:45;21.58;;;13.70;;
40537;SDS011;27925;41.874;12.526;2024-01-06T23:56:11;27.30;;;13.98;;
40537;SDS011;27925;41.874;12.526;2024-01-06T23:58:36;18.48;;;13.25;;
